| time (UTC) | temp C | wind direction | speed KPH | gust KPH | rain 1hr cm | rain 24hr cm | rain mn cm | humidity % | barometer mb |
| 20260904035516 | 22 | 63 | 8.0 | 17.7 | 0.00 | 0.00 | 0.00 | 28 | 1023.3 |
| 20260904034516 | 22 | 55 | 8.0 | 17.7 | 0.00 | 0.00 | 0.00 | 28 | 1023.3 |
| 20260904033556 | 22 | 45 | 11.3 | 16.1 | 0.00 | 0.00 | 0.00 | 29 | 1023.5 |
| 20260904032516 | 22 | 48 | 8.0 | 14.5 | 0.00 | 0.00 | 0.00 | 30 | 1023.5 |
| 20260904031556 | 22 | 43 | 6.4 | 9.7 | 0.00 | 0.00 | 0.00 | 30 | 1023.4 |
| 20260904030516 | 22 | 43 | 6.4 | 11.3 | 0.00 | 0.00 | 0.00 | 30 | 1023.3 |
| 20260904025516 | 22 | 43 | 6.4 | 12.9 | 0.00 | 0.00 | 0.00 | 29 | 1023.3 |
| 20260904024516 | 22 | 41 | 6.4 | 9.7 | 0.00 | 0.00 | 0.00 | 29 | 1023.2 |
| 20260904023516 | 22 | 42 | 4.8 | 9.7 | 0.00 | 0.00 | 0.00 | 29 | 1023.2 |
| 20260904022556 | 23 | 53 | 4.8 | 9.7 | 0.00 | 0.00 | 0.00 | 29 | 1023.3 |
| 20260904021556 | 23 | 68 | 3.2 | 9.7 | 0.00 | 0.00 | 0.00 | 28 | 1023.3 |
| 20260904020516 | 23 | 74 | 4.8 | 8.0 | 0.00 | 0.00 | 0.00 | 27 | 1023.4 |
| 20260904015516 | 24 | 64 | 6.4 | 11.3 | 0.00 | 0.00 | 0.00 | 27 | 1023.5 |
| 20260904014517 | 24 | 70 | 4.8 | 11.3 | 0.00 | 0.00 | 0.00 | 26 | 1023.6 |
| 20260904013616 | 24 | 65 | 4.8 | 9.7 | 0.00 | 0.00 | 0.00 | 26 | 1023.7 |
| 20260904012516 | 25 | 69 | 4.8 | 12.9 | 0.00 | 0.00 | 0.00 | 26 | 1023.8 |
| 20260904011516 | 25 | 58 | 6.4 | 14.5 | 0.00 | 0.00 | 0.00 | 25 | 1023.6 |
| 20260904010516 | 25 | 51 | 8.0 | 14.5 | 0.00 | 0.00 | 0.00 | 25 | 1023.8 |
| 20260904005516 | 25 | 60 | 8.0 | 14.5 | 0.00 | 0.00 | 0.00 | 25 | 1023.9 |
| 20260904004517 | 25 | 49 | 8.0 | 16.1 | 0.00 | 0.00 | 0.00 | 25 | 1023.8 |
| 20260904003516 | 26 | 62 | 4.8 | 11.3 | 0.00 | 0.00 | 0.00 | 25 | 1023.8 |
| 20260904002616 | 26 | 62 | 4.8 | 11.3 | 0.00 | 0.00 | 0.00 | 24 | 1023.8 |
| 20260904001616 | 26 | 59 | 4.8 | 11.3 | 0.00 | 0.00 | 0.00 | 24 | 1023.8 |
| 20260904000516 | 26 | 49 | 4.8 | 9.7 | 0.00 | 0.00 | 0.00 | 24 | 1023.8 |
| 20260903235516 | 26 | 53 | 4.8 | 11.3 | 0.00 | 0.00 | 0.00 | 25 | 1023.8 |
| 20260903234516 | 26 | 67 | 4.8 | 8.0 | 0.00 | 0.00 | 0.00 | 24 | 1023.6 |
| 20260903233556 | 27 | 88 | 3.2 | 8.0 | 0.00 | 0.00 | 0.00 | 24 | 1023.5 |
| 20260903232556 | 27 | 87 | 3.2 | 6.4 | 0.00 | 0.00 | 0.00 | 23 | 1023.5 |
| 20260903231516 | 27 | 75 | 3.2 | 6.4 | 0.00 | 0.00 | 0.00 | 24 | 1023.4 |
| 20260903230516 | 27 | 77 | 3.2 | 4.8 | 0.00 | 0.00 | 0.00 | 25 | 1023.3 |
| 20260903225516 | 27 | 72 | 3.2 | 6.4 | 0.00 | 0.00 | 0.00 | 25 | 1023.5 |
| 20260903224516 | 27 | 61 | 1.6 | 4.8 | 0.00 | 0.00 | 0.00 | 25 | 1023.2 |
| 20260903223516 | 28 | 61 | 3.2 | 4.8 | 0.00 | 0.00 | 0.00 | 24 | 1023.2 |
| 20260903222516 | 28 | 61 | 1.6 | 4.8 | 0.00 | 0.00 | 0.00 | 24 | 1023.2 |
| 20260903221516 | 28 | 48 | 4.8 | 8.0 | 0.00 | 0.00 | 0.00 | 24 | 1022.9 |
| 20260903220516 | 28 | 43 | 4.8 | 6.4 | 0.00 | 0.00 | 0.00 | 24 | 1023.0 |
| 20260903215556 | 28 | 55 | 3.2 | 6.4 | 0.00 | 0.00 | 0.00 | 24 | 1023.0 |
| 20260903214556 | 29 | 63 | 4.8 | 6.4 | 0.00 | 0.00 | 0.00 | 23 | 1022.8 |
| 20260903213516 | 29 | 65 | 3.2 | 6.4 | 0.00 | 0.00 | 0.00 | 23 | 1022.7 |
| 20260903212516 | 29 | 65 | 3.2 | 6.4 | 0.00 | 0.00 | 0.00 | 23 | 1022.8 |
| 20260903211516 | 30 | 65 | 3.2 | 4.8 | 0.00 | 0.00 | 0.00 | 23 | 1022.6 |
| 20260903210516 | 30 | 65 | 3.2 | 6.4 | 0.00 | 0.00 | 0.00 | 22 | 1022.7 |
| 20260903205616 | 30 | 65 | 3.2 | 4.8 | 0.00 | 0.00 | 0.00 | 22 | 1022.7 |
| 20260903204516 | 30 | 260 | 1.6 | 3.2 | 0.00 | 0.00 | 0.00 | 22 | 1022.3 |
| 20260903203516 | 29 | 260 | 1.6 | 3.2 | 0.00 | 0.00 | 0.00 | 24 | 1022.1 |
| 20260903202516 | 29 | 0.0 | 0.0 | 0.00 | 0.00 | 0.00 | 26 | 1022.1 | |
| 20260903201516 | 29 | 0.0 | 0.0 | 0.00 | 0.00 | 0.00 | 25 | 1021.8 | |
| 20260903200516 | 30 | 0.0 | 0.0 | 0.00 | 0.00 | 0.00 | 27 | 1021.9 | |
| 20260903195556 | 30 | 0.0 | 0.0 | 0.00 | 0.00 | 0.00 | 24 | 1021.6 | |
| 20260903194556 | 31 | 0.0 | 0.0 | 0.00 | 0.00 | 0.00 | 24 | 1021.5 | |
| 20260903193516 | 31 | 0.0 | 0.0 | 0.00 | 0.00 | 0.00 | 23 | 1021.4 | |
| 20260903192516 | 31 | 0.0 | 0.0 | 0.00 | 0.00 | 0.00 | 23 | 1021.4 | |
| 20260903191516 | 32 | 0.0 | 0.0 | 0.00 | 0.00 | 0.00 | 22 | 1021.4 | |
| 20260903190556 | 33 | 260 | 0.0 | 1.6 | 0.00 | 0.00 | 0.00 | 21 | 1021.3 |
| 20260903185516 | 33 | 260 | 0.0 | 1.6 | 0.00 | 0.00 | 0.00 | 20 | 1021.4 |
| 20260903184556 | 34 | 260 | 1.6 | 3.2 | 0.00 | 0.00 | 0.00 | 18 | 1021.3 |
| 20260903183516 | 35 | 260 | 1.6 | 3.2 | 0.00 | 0.00 | 0.00 | 17 | 1021.4 |
| 20260903182516 | 36 | 260 | 1.6 | 3.2 | 0.00 | 0.00 | 0.00 | 17 | 1021.5 |
| 20260903181556 | 36 | 260 | 1.6 | 4.8 | 0.00 | 0.00 | 0.00 | 16 | 1021.6 |
| 20260903180516 | 36 | 266 | 1.6 | 6.4 | 0.00 | 0.00 | 0.00 | 15 | 1021.5 |
| 20260903175516 | 37 | 265 | 3.2 | 11.3 | 0.00 | 0.00 | 0.00 | 15 | 1021.7 |
| 20260903174516 | 37 | 270 | 3.2 | 8.0 | 0.00 | 0.00 | 0.00 | 14 | 1021.6 |
| 20260903173516 | 37 | 252 | 3.2 | 6.4 | 0.00 | 0.00 | 0.00 | 14 | 1021.6 |
| 20260903172516 | 37 | 241 | 3.2 | 8.0 | 0.00 | 0.00 | 0.00 | 14 | 1021.6 |
| 20260903171516 | 37 | 271 | 4.8 | 11.3 | 0.00 | 0.00 | 0.00 | 14 | 1021.7 |
| 20260903170516 | 37 | 250 | 3.2 | 8.0 | 0.00 | 0.00 | 0.00 | 14 | 1021.8 |
| 20260903165516 | 37 | 279 | 6.4 | 12.9 | 0.00 | 0.00 | 0.00 | 14 | 1021.8 |
| 20260903164516 | 37 | 266 | 4.8 | 14.5 | 0.00 | 0.00 | 0.00 | 14 | 1021.7 |
| 20260903163557 | 37 | 228 | 4.8 | 14.5 | 0.00 | 0.00 | 0.00 | 14 | 1021.8 |
| 20260903162516 | 37 | 262 | 6.4 | 14.5 | 0.00 | 0.00 | 0.00 | 14 | 1021.9 |
| 20260903161516 | 37 | 232 | 4.8 | 12.9 | 0.00 | 0.00 | 0.00 | 14 | 1021.9 |
| 20260903160516 | 37 | 248 | 4.8 | 11.3 | 0.00 | 0.00 | 0.00 | 15 | 1022.0 |
| 20260903155516 | 37 | 266 | 8.0 | 19.3 | 0.00 | 0.00 | 0.00 | 15 | 1022.0 |
| 20260903154516 | 37 | 261 | 4.8 | 14.5 | 0.00 | 0.00 | 0.00 | 16 | 1022.1 |
| 20260903153636 | 37 | 265 | 4.8 | 14.5 | 0.00 | 0.00 | 0.00 | 15 | 1022.1 |
| 20260903152516 | 37 | 286 | 6.4 | 12.9 | 0.00 | 0.00 | 0.00 | 14 | 1022.2 |
| 20260903151516 | 37 | 263 | 4.8 | 12.9 | 0.00 | 0.00 | 0.00 | 15 | 1022.3 |
| 20260903150516 | 37 | 167 | 1.6 | 11.3 | 0.00 | 0.00 | 0.00 | 14 | 1022.3 |
| 20260903145516 | 36 | 280 | 4.8 | 14.5 | 0.00 | 0.00 | 0.00 | 14 | 1022.5 |
| 20260903144516 | 37 | 303 | 8.0 | 16.1 | 0.00 | 0.00 | 0.00 | 13 | 1022.7 |
| 20260903143516 | 37 | 257 | 4.8 | 9.7 | 0.00 | 0.00 | 0.00 | 11 | 1022.7 |
| 20260903142516 | 36 | 296 | 8.0 | 16.1 | 0.00 | 0.00 | 0.00 | 11 | 1022.6 |
| 20260903141516 | 36 | 258 | 4.8 | 11.3 | 0.00 | 0.00 | 0.00 | 14 | 1022.8 |
| 20260903140517 | 36 | 269 | 6.4 | 16.1 | 0.00 | 0.00 | 0.00 | 15 | 1022.9 |
| 20260903135556 | 36 | 214 | 3.2 | 11.3 | 0.00 | 0.00 | 0.00 | 16 | 1023.0 |
| 20260903134516 | 36 | 299 | 6.4 | 16.1 | 0.00 | 0.00 | 0.00 | 15 | 1023.2 |
| 20260903133516 | 36 | 355 | 6.4 | 17.7 | 0.00 | 0.00 | 0.00 | 15 | 1023.3 |
| 20260903132556 | 36 | 274 | 9.7 | 16.1 | 0.00 | 0.00 | 0.00 | 17 | 1023.5 |
| 20260903131516 | 36 | 285 | 3.2 | 12.9 | 0.00 | 0.00 | 0.00 | 18 | 1023.6 |
| 20260903130556 | 36 | 279 | 6.4 | 12.9 | 0.00 | 0.00 | 0.00 | 17 | 1023.6 |
| 20260903125516 | 35 | 260 | 8.0 | 17.7 | 0.00 | 0.00 | 0.00 | 18 | 1023.6 |
| 20260903124516 | 35 | 278 | 4.8 | 16.1 | 0.00 | 0.00 | 0.00 | 19 | 1023.7 |
| 20260903123516 | 35 | 15 | 4.8 | 14.5 | 0.00 | 0.00 | 0.00 | 20 | 1023.7 |
| 20260903122516 | 35 | 271 | 8.0 | 14.5 | 0.00 | 0.00 | 0.00 | 20 | 1023.8 |
| 20260903121517 | 34 | 250 | 4.8 | 14.5 | 0.00 | 0.00 | 0.00 | 23 | 1024.0 |
| 20260903120556 | 34 | 349 | 6.4 | 17.7 | 0.00 | 0.00 | 0.00 | 23 | 1024.0 |
| 20260903115516 | 34 | 217 | 4.8 | 12.9 | 0.00 | 0.00 | 0.00 | 28 | 1024.2 |
| 20260903114516 | 33 | 271 | 3.2 | 8.0 | 0.00 | 0.00 | 0.00 | 29 | 1024.1 |
| 20260903113516 | 33 | 129 | 3.2 | 11.3 | 0.00 | 0.00 | 0.00 | 30 | 1024.2 |
| 20260903112516 | 33 | 241 | 3.2 | 6.4 | 0.00 | 0.00 | 0.00 | 31 | 1024.3 |
| 20260903111556 | 32 | 253 | 1.6 | 6.4 | 0.00 | 0.00 | 0.00 | 33 | 1024.5 |
| 20260903110517 | 31 | 232 | 3.2 | 8.0 | 0.00 | 0.00 | 0.00 | 33 | 1024.4 |
| 20260903105516 | 31 | 227 | 3.2 | 8.0 | 0.00 | 0.00 | 0.00 | 36 | 1024.6 |
| 20260903104517 | 31 | 255 | 3.2 | 6.4 | 0.00 | 0.00 | 0.00 | 37 | 1024.6 |
| 20260903103516 | 31 | 254 | 3.2 | 4.8 | 0.00 | 0.00 | 0.00 | 37 | 1024.7 |
| 20260903102557 | 30 | 249 | 3.2 | 8.0 | 0.00 | 0.00 | 0.00 | 39 | 1024.7 |
| 20260903101516 | 30 | 257 | 1.6 | 4.8 | 0.00 | 0.00 | 0.00 | 43 | 1024.8 |
| 20260903100517 | 29 | 262 | 1.6 | 4.8 | 0.00 | 0.00 | 0.00 | 46 | 1024.7 |
| 20260903095556 | 29 | 243 | 1.6 | 4.8 | 0.00 | 0.00 | 0.00 | 47 | 1024.8 |
| 20260903094517 | 28 | 272 | 1.6 | 4.8 | 0.00 | 0.00 | 0.00 | 49 | 1024.7 |
| 20260903093516 | 28 | 258 | 3.2 | 6.4 | 0.00 | 0.00 | 0.00 | 50 | 1024.7 |
| 20260903092516 | 27 | 34 | 1.6 | 4.8 | 0.00 | 0.00 | 0.00 | 48 | 1024.7 |
| 20260903091516 | 27 | 39 | 1.6 | 6.4 | 0.00 | 0.00 | 0.00 | 48 | 1024.8 |
| 20260903090516 | 27 | 62 | 0.0 | 3.2 | 0.00 | 0.00 | 0.00 | 47 | 1024.7 |
| 20260903085516 | 26 | 58 | 1.6 | 4.8 | 0.00 | 0.00 | 0.00 | 47 | 1024.6 |
| 20260903084516 | 26 | 47 | 1.6 | 3.2 | 0.00 | 0.00 | 0.00 | 47 | 1024.6 |
| 20260903083516 | 25 | 47 | 1.6 | 6.4 | 0.00 | 0.00 | 0.00 | 48 | 1024.5 |
| 20260903082516 | 24 | 47 | 3.2 | 6.4 | 0.00 | 0.00 | 0.00 | 49 | 1024.3 |
| 20260903081516 | 23 | 38 | 3.2 | 6.4 | 0.00 | 0.00 | 0.00 | 50 | 1024.3 |
| 20260903080517 | 23 | 49 | 4.8 | 8.0 | 0.00 | 0.00 | 0.00 | 50 | 1024.4 |
| 20260903075516 | 22 | 40 | 4.8 | 11.3 | 0.00 | 0.00 | 0.00 | 52 | 1024.1 |
| 20260903074517 | 22 | 48 | 6.4 | 14.5 | 0.00 | 0.00 | 0.00 | 53 | 1024.2 |
| 20260903073516 | 22 | 47 | 9.7 | 16.1 | 0.00 | 0.00 | 0.00 | 54 | 1024.2 |
| 20260903072517 | 21 | 48 | 8.0 | 14.5 | 0.00 | 0.00 | 0.00 | 54 | 1024.2 |
| 20260903071556 | 21 | 49 | 8.0 | 14.5 | 0.00 | 0.00 | 0.00 | 55 | 1024.3 |
| 20260903070556 | 21 | 46 | 8.0 | 14.5 | 0.00 | 0.00 | 0.00 | 55 | 1024.1 |
| 20260903065516 | 21 | 46 | 8.0 | 14.5 | 0.00 | 0.00 | 0.00 | 55 | 1024.1 |
| 20260903064516 | 21 | 45 | 4.8 | 12.9 | 0.00 | 0.00 | 0.00 | 56 | 1024.2 |
| 20260903063517 | 20 | 46 | 6.4 | 12.9 | 0.00 | 0.00 | 0.00 | 56 | 1024.1 |
| 20260903062517 | 20 | 42 | 6.4 | 12.9 | 0.00 | 0.00 | 0.00 | 56 | 1023.9 |
| 20260903061516 | 20 | 46 | 6.4 | 14.5 | 0.00 | 0.00 | 0.00 | 56 | 1023.9 |
| 20260903060516 | 20 | 45 | 8.0 | 14.5 | 0.00 | 0.00 | 0.00 | 55 | 1023.7 |
| 20260903055516 | 20 | 45 | 6.4 | 14.5 | 0.00 | 0.00 | 0.00 | 55 | 1023.7 |
| 20260903054516 | 20 | 49 | 8.0 | 16.1 | 0.00 | 0.00 | 0.00 | 54 | 1023.6 |
| 20260903053516 | 20 | 48 | 8.0 | 12.9 | 0.00 | 0.00 | 0.00 | 53 | 1023.4 |
| 20260903052556 | 20 | 57 | 4.8 | 12.9 | 0.00 | 0.00 | 0.00 | 53 | 1023.4 |
| 20260903051517 | 20 | 50 | 8.0 | 14.5 | 0.00 | 0.00 | 0.00 | 52 | 1023.3 |
| 20260903050516 | 20 | 48 | 8.0 | 12.9 | 0.00 | 0.00 | 0.00 | 51 | 1023.1 |
| 20260903045517 | 21 | 48 | 6.4 | 11.3 | 0.00 | 0.00 | 0.00 | 50 | 1023.3 |
| 20260903044517 | 21 | 51 | 6.4 | 11.3 | 0.00 | 0.00 | 0.00 | 49 | 1023.4 |
| 20260903043517 | 21 | 47 | 4.8 | 14.5 | 0.00 | 0.00 | 0.00 | 49 | 1023.4 |
| 20260903042516 | 21 | 48 | 4.8 | 9.7 | 0.00 | 0.00 | 0.00 | 49 | 1023.3 |
| 20260903041516 | 21 | 46 | 4.8 | 11.3 | 0.00 | 0.00 | 0.00 | 48 | 1023.2 |
| 20260903040517 | 21 | 42 | 6.4 | 9.7 | 0.00 | 0.00 | 0.00 | 47 | 1023.2 |